Terminal Aerodrome Forecast
Issued by NWS

Home | Current Version | Previous Version | Text Only | Print | Product List | Glossary On
Versions: 1 2 3 4 5 6 7 8 9 10 11 12 13 14 15 16 17 18 19 20
000
FTUS43 KDLH 172326
TAFHYR
TAF
KHYR 172326Z 1800/1824 17012KT P6SM VCTS BKN030CB
     FM180200 18008KT P6SM VCTS BKN030CB
      TEMPO 1802/1806 4SM TSRA OVC025CB
     FM180600 19006KT P6SM VCTS BKN040CB
     FM181200 20005KT P6SM VCTS BKN030CB
     FM181800 27005KT P6SM VCTS BKN045CB=

USA.gov is the U.S. government's official web portal to all federal, state and local government web resources and services.